createdAt,value
2017-06-23T00:01:00.641Z,9.40
2017-06-23T00:03:28.096Z,9.40
2017-06-23T00:05:55.549Z,9.23
2017-06-23T00:08:23.063Z,8.90
2017-06-23T00:10:50.516Z,9.57
2017-06-23T00:13:17.977Z,9.90
2017-06-23T00:15:45.437Z,9.03
2017-06-23T00:18:12.884Z,9.67
2017-06-23T00:20:40.326Z,9.80
2017-06-23T00:23:08.570Z,9.20
2017-06-23T00:25:36.025Z,9.90
2017-06-23T00:28:03.484Z,9.53
2017-06-23T00:30:30.949Z,9.30
2017-06-23T00:32:58.401Z,7.80
2017-06-23T00:35:25.860Z,8.90
2017-06-23T00:37:53.321Z,9.63
2017-06-23T00:40:20.781Z,8.20
2017-06-23T00:42:48.231Z,8.73
2017-06-23T00:45:15.705Z,9.63
2017-06-23T00:47:43.152Z,9.30
2017-06-23T00:50:10.649Z,8.87
2017-06-23T00:52:38.863Z,8.80
2017-06-23T00:55:06.309Z,9.73
2017-06-23T00:57:33.788Z,10.20
2017-06-23T01:00:01.248Z,9.60
2017-06-23T01:02:28.700Z,9.90
2017-06-23T01:04:56.148Z,8.53
2017-06-23T01:07:23.610Z,8.33
2017-06-23T01:09:51.064Z,8.70
2017-06-23T01:12:18.542Z,9.70
2017-06-23T01:14:45.999Z,9.80
2017-06-23T01:17:13.453Z,9.30
2017-06-23T01:19:40.913Z,9.33
2017-06-23T01:22:08.381Z,10.53
2017-06-23T01:24:35.848Z,9.40
2017-06-23T01:27:03.301Z,9.67
2017-06-23T01:29:30.791Z,8.90
2017-06-23T01:31:59.057Z,10.00
2017-06-23T01:34:26.526Z,8.37
2017-06-23T01:36:54.757Z,9.53
2017-06-23T01:39:22.220Z,8.73
2017-06-23T01:41:49.677Z,9.37
2017-06-23T01:44:17.141Z,7.57
2017-06-23T01:46:44.601Z,9.50
2017-06-23T01:49:12.060Z,9.30
2017-06-23T01:51:40.346Z,9.63
2017-06-23T01:54:07.804Z,9.00
2017-06-23T01:56:35.277Z,9.03
2017-06-23T01:59:02.740Z,10.33
2017-06-23T02:01:30.201Z,9.53
2017-06-23T02:03:58.429Z,9.53
2017-06-23T02:06:25.880Z,9.20
2017-06-23T02:08:53.345Z,9.57
2017-06-23T02:11:20.800Z,9.03
2017-06-23T02:13:48.265Z,8.73
2017-06-23T02:16:15.715Z,9.10
2017-06-23T02:18:43.188Z,8.70
2017-06-23T02:21:10.649Z,7.50
2017-06-23T02:23:38.116Z,7.83
2017-06-23T02:26:05.559Z,8.90
2017-06-23T02:28:33.033Z,9.03
2017-06-23T02:31:00.573Z,8.03
2017-06-23T02:33:28.029Z,9.00
2017-06-23T02:35:55.488Z,7.53
2017-06-23T02:38:22.953Z,8.37
2017-06-23T02:40:50.423Z,7.03
2017-06-23T02:43:17.880Z,8.07
2017-06-23T02:45:45.340Z,8.30
2017-06-23T02:48:12.797Z,8.10
2017-06-23T02:50:40.256Z,7.70
2017-06-23T02:53:07.707Z,8.00
2017-06-23T02:55:35.213Z,8.10
2017-06-23T02:58:02.660Z,7.80
2017-06-23T03:00:30.893Z,7.30
2017-06-23T03:02:58.369Z,7.80
2017-06-23T03:05:25.838Z,7.20
2017-06-23T03:07:53.303Z,6.70
2017-06-23T03:10:21.536Z,7.20
2017-06-23T03:12:49.000Z,6.53
2017-06-23T03:15:16.462Z,7.17
2017-06-23T03:17:43.925Z,7.63
2017-06-23T03:20:11.388Z,6.40
2017-06-23T03:22:38.849Z,5.90
2017-06-23T03:25:06.318Z,6.37
2017-06-23T03:27:34.546Z,6.90
2017-06-23T03:30:02.000Z,6.80
2017-06-23T03:32:29.465Z,6.97
2017-06-23T03:34:56.926Z,6.33
2017-06-23T03:37:24.385Z,7.30
2017-06-23T03:39:51.828Z,7.03
2017-06-23T03:42:19.315Z,7.03
2017-06-23T03:44:46.756Z,8.10
2017-06-23T03:47:14.208Z,6.93
2017-06-23T03:49:41.669Z,6.60
2017-06-23T03:52:09.117Z,6.50
2017-06-23T03:54:36.655Z,6.87
2017-06-23T03:57:04.865Z,6.70
2017-06-23T03:59:32.312Z,6.57
2017-06-23T04:01:59.774Z,7.03
2017-06-23T04:04:27.283Z,5.87
2017-06-23T04:06:54.720Z,5.50
2017-06-23T04:09:22.177Z,7.20
2017-06-23T04:11:49.696Z,6.37
2017-06-23T04:14:17.152Z,6.50
2017-06-23T04:16:44.605Z,6.03
2017-06-23T04:19:12.085Z,5.60
2017-06-23T04:21:40.980Z,5.70
2017-06-23T04:24:08.432Z,5.53
2017-06-23T04:26:35.876Z,6.30
2017-06-23T04:29:03.342Z,5.70
2017-06-23T04:31:30.811Z,6.40
2017-06-23T04:33:58.279Z,6.10
2017-06-23T04:36:25.733Z,6.97
2017-06-23T04:38:53.193Z,6.83
2017-06-23T04:41:20.660Z,5.90
2017-06-23T04:43:48.116Z,6.60
2017-06-23T04:46:15.569Z,7.13
2017-06-23T04:48:43.037Z,6.40
2017-06-23T04:51:10.492Z,6.30
2017-06-23T04:53:37.951Z,5.47
2017-06-23T04:56:05.421Z,5.53
2017-06-23T04:58:32.877Z,7.40
2017-06-23T05:01:00.337Z,6.63
2017-06-23T05:03:27.812Z,7.67
2017-06-23T05:05:55.260Z,7.03
2017-06-23T05:08:22.725Z,6.80
2017-06-23T05:10:50.244Z,7.50
2017-06-23T05:13:17.692Z,6.40
2017-06-23T05:15:45.154Z,7.13
2017-06-23T05:18:12.673Z,8.40
2017-06-23T05:20:40.895Z,7.60
2017-06-23T05:23:08.361Z,7.33
2017-06-23T05:25:35.821Z,8.73
2017-06-23T05:28:03.284Z,7.50
2017-06-23T05:30:30.732Z,9.50
2017-06-23T05:32:58.188Z,8.80
2017-06-23T05:35:25.652Z,9.40
2017-06-23T05:37:53.117Z,7.73
2017-06-23T05:40:20.569Z,9.10
2017-06-23T05:42:48.041Z,8.30
2017-06-23T05:45:15.497Z,8.20
2017-06-23T05:47:42.948Z,9.20
2017-06-23T05:50:10.413Z,9.20
2017-06-23T05:52:37.881Z,9.00
2017-06-23T05:55:05.345Z,9.70
2017-06-23T05:57:32.802Z,8.97
2017-06-23T06:00:00.260Z,8.60
2017-06-23T06:02:27.724Z,8.77
2017-06-23T06:04:55.181Z,9.23
2017-06-23T06:07:22.640Z,9.43
2017-06-23T06:09:50.100Z,8.40
2017-06-23T06:12:17.559Z,8.90
2017-06-23T06:14:45.021Z,9.20
2017-06-23T06:17:13.250Z,8.73
2017-06-23T06:19:40.696Z,9.37
2017-06-23T06:22:08.156Z,9.07
2017-06-23T06:24:35.646Z,9.50
2017-06-23T06:27:03.116Z,8.97
2017-06-23T06:29:30.571Z,9.40
2017-06-23T06:31:58.052Z,8.70
2017-06-23T06:34:26.812Z,8.17
2017-06-23T06:36:54.264Z,8.70
2017-06-23T06:39:21.716Z,9.00
2017-06-23T06:41:49.169Z,9.03
2017-06-23T06:44:16.624Z,8.47
2017-06-23T06:46:44.068Z,7.67
2017-06-23T06:49:11.571Z,8.53
2017-06-23T06:51:40.376Z,8.53
2017-06-23T06:54:07.837Z,8.20
2017-06-23T06:56:36.061Z,8.10
2017-06-23T06:59:03.509Z,8.10
2017-06-23T07:01:31.008Z,9.00
2017-06-23T07:03:58.447Z,9.20
2017-06-23T07:06:25.912Z,8.80
2017-06-23T07:08:53.368Z,7.77
2017-06-23T07:11:20.825Z,7.87
2017-06-23T07:13:48.290Z,7.40
2017-06-23T07:16:15.748Z,8.23
2017-06-23T07:18:43.200Z,8.73
2017-06-23T07:23:43.617Z,8.60
2017-06-23T07:26:11.061Z,8.53
2017-06-23T07:28:38.515Z,7.73
2017-06-23T07:31:05.969Z,7.47
2017-06-23T07:33:33.428Z,8.43
2017-06-23T07:36:00.877Z,8.30
2017-06-23T07:38:29.100Z,8.53
2017-06-23T07:40:56.553Z,8.00
2017-06-23T07:43:24.007Z,8.10
2017-06-23T07:45:51.469Z,7.73
2017-06-23T07:48:18.925Z,8.20
2017-06-23T07:50:46.385Z,8.20
2017-06-23T07:53:13.841Z,8.03
2017-06-23T07:55:41.297Z,9.17
2017-06-23T07:58:08.747Z,8.03
2017-06-23T08:00:36.214Z,7.90
2017-06-23T08:03:03.668Z,8.30
2017-06-23T08:05:31.157Z,7.60
2017-06-23T08:07:58.600Z,7.80
2017-06-23T08:10:26.055Z,7.70
2017-06-23T08:12:53.660Z,8.10
2017-06-23T08:15:21.903Z,7.17
2017-06-23T08:17:49.375Z,7.90
2017-06-23T08:20:16.922Z,8.23
2017-06-23T08:22:44.468Z,8.30
2017-06-23T08:25:11.919Z,8.60
2017-06-23T08:27:39.365Z,8.00
2017-06-23T08:30:06.849Z,8.23
2017-06-23T08:32:34.309Z,8.33
2017-06-23T08:35:01.771Z,8.23
2017-06-23T08:37:29.329Z,8.10
2017-06-23T08:39:56.790Z,7.30
2017-06-23T08:42:24.245Z,7.00
2017-06-23T08:44:51.706Z,8.50
2017-06-23T08:47:19.193Z,8.40
2017-06-23T08:49:46.628Z,8.00
2017-06-23T08:52:14.098Z,8.43
2017-06-23T08:54:41.553Z,9.17
2017-06-23T08:57:09.009Z,7.90
2017-06-23T08:59:36.469Z,8.67
2017-06-23T09:02:03.940Z,8.73
2017-06-23T09:04:31.402Z,9.20
2017-06-23T09:06:58.865Z,7.93
2017-06-23T09:09:27.099Z,7.20
2017-06-23T09:11:54.545Z,8.00
2017-06-23T09:14:22.009Z,6.90
2017-06-23T09:16:49.470Z,8.43
2017-06-23T09:19:16.916Z,8.47
2017-06-23T09:21:44.383Z,7.80
2017-06-23T09:24:11.847Z,7.90
2017-06-23T09:26:39.305Z,7.37
2017-06-23T09:29:06.756Z,8.50
2017-06-23T09:31:34.216Z,7.80
2017-06-23T09:34:01.669Z,7.90
2017-06-23T09:36:29.141Z,7.53
2017-06-23T09:38:56.596Z,7.77
2017-06-23T09:41:24.048Z,8.20
2017-06-23T09:43:51.561Z,8.33
2017-06-23T09:46:19.021Z,8.57
2017-06-23T09:48:46.470Z,7.80
2017-06-23T09:51:13.950Z,6.57
2017-06-23T09:53:41.405Z,8.17
2017-06-23T09:56:08.861Z,6.90
2017-06-23T09:58:36.330Z,6.73
2017-06-23T10:01:03.780Z,8.00
2017-06-23T10:03:31.230Z,8.07
2017-06-23T10:05:58.696Z,7.23
2017-06-23T10:08:26.177Z,6.87
2017-06-23T10:10:53.642Z,7.03
2017-06-23T10:13:21.093Z,7.13
2017-06-23T10:15:48.548Z,7.23
2017-06-23T10:18:16.005Z,7.20
2017-06-23T10:20:44.359Z,6.43
2017-06-23T10:23:14.329Z,7.00
2017-06-23T10:25:41.777Z,7.43
2017-06-23T10:28:09.237Z,6.40
2017-06-23T10:30:36.690Z,6.40
2017-06-23T10:33:04.149Z,6.37
2017-06-23T10:35:31.633Z,6.80
2017-06-23T10:37:59.089Z,5.70
2017-06-23T10:40:26.538Z,6.93
2017-06-23T10:42:53.996Z,7.23
2017-06-23T10:45:21.466Z,6.60
2017-06-23T10:47:48.945Z,6.83
2017-06-23T10:50:16.416Z,6.20
2017-06-23T10:52:44.014Z,7.47
2017-06-23T10:55:11.460Z,6.83
2017-06-23T10:57:38.925Z,6.60
2017-06-23T11:00:06.381Z,6.63
2017-06-23T11:02:33.854Z,6.37
2017-06-23T11:05:01.317Z,6.10
2017-06-23T11:07:28.774Z,6.40
2017-06-23T11:09:56.220Z,6.23
2017-06-23T11:12:23.677Z,5.40
2017-06-23T11:14:51.125Z,5.53
2017-06-23T11:17:18.620Z,5.97
2017-06-23T11:19:46.060Z,5.20
2017-06-23T11:22:13.517Z,5.80
2017-06-23T11:24:40.964Z,5.63
2017-06-23T11:27:08.426Z,6.03
2017-06-23T11:29:35.877Z,5.30
2017-06-23T11:32:03.330Z,5.63
2017-06-23T11:34:31.755Z,5.40
2017-06-23T11:36:59.209Z,4.77
2017-06-23T11:39:26.669Z,5.10
2017-06-23T11:41:54.889Z,4.30
2017-06-23T11:44:22.342Z,5.37
2017-06-23T11:46:49.796Z,4.67
2017-06-23T11:49:17.247Z,5.53
2017-06-23T11:51:44.697Z,5.60
2017-06-23T11:54:12.149Z,5.20
2017-06-23T11:56:40.374Z,4.80
2017-06-23T11:59:07.838Z,5.13
2017-06-23T12:01:35.296Z,4.80
2017-06-23T12:04:02.762Z,5.57
2017-06-23T12:06:30.226Z,4.70
2017-06-23T12:08:57.687Z,4.60
2017-06-23T12:11:25.138Z,5.13
2017-06-23T12:13:52.593Z,5.60
2017-06-23T12:16:20.106Z,5.00
2017-06-23T12:18:47.577Z,5.40
2017-06-23T12:21:15.025Z,4.87
2017-06-23T12:23:42.486Z,4.63
2017-06-23T12:26:09.927Z,5.20
2017-06-23T12:28:37.369Z,4.20
2017-06-23T12:31:04.820Z,5.50
2017-06-23T12:33:32.273Z,5.00
2017-06-23T12:35:59.734Z,4.50
2017-06-23T12:38:27.189Z,4.43
2017-06-23T12:40:54.699Z,5.30
2017-06-23T12:43:22.190Z,5.33
2017-06-23T12:45:49.645Z,5.60
2017-06-23T12:48:17.106Z,5.10
2017-06-23T12:50:44.553Z,4.40
2017-06-23T12:53:12.017Z,4.70
2017-06-23T12:55:39.478Z,4.70
2017-06-23T12:58:06.929Z,5.13
2017-06-23T13:00:35.323Z,4.37
2017-06-23T13:03:02.781Z,5.73
2017-06-23T13:05:30.237Z,4.97
2017-06-23T13:07:57.798Z,4.50
2017-06-23T13:10:25.353Z,4.90
2017-06-23T13:12:52.829Z,4.73
2017-06-23T13:15:20.290Z,4.80
2017-06-23T13:17:47.753Z,4.90
2017-06-23T13:20:16.005Z,5.07
2017-06-23T13:22:43.562Z,4.80
2017-06-23T13:25:11.022Z,4.60
2017-06-23T13:27:38.582Z,4.43
2017-06-23T13:30:06.045Z,5.13
2017-06-23T13:32:33.603Z,5.10
2017-06-23T13:35:01.877Z,10.47
2017-06-23T13:37:29.436Z,6.30
2017-06-23T13:39:56.888Z,11.97
2017-06-23T13:42:24.451Z,5.63
2017-06-23T13:44:52.013Z,5.70
2017-06-23T13:47:19.463Z,5.23
2017-06-23T13:49:47.106Z,6.33
2017-06-23T13:52:14.598Z,6.87
2017-06-23T13:54:42.204Z,8.10
2017-06-23T13:57:09.721Z,6.50
2017-06-23T13:59:37.177Z,5.90
2017-06-23T14:02:04.643Z,7.63
2017-06-23T14:04:32.119Z,6.10
2017-06-23T14:06:59.568Z,5.70
2017-06-23T14:09:27.025Z,8.53
2017-06-23T14:11:54.486Z,7.23
2017-06-23T14:14:21.993Z,5.83
2017-06-23T14:16:49.441Z,5.90
2017-06-23T14:19:16.893Z,5.97
2017-06-23T14:21:44.361Z,5.90
2017-06-23T14:24:11.809Z,9.23
2017-06-23T14:26:39.260Z,5.40
2017-06-23T14:29:06.722Z,5.00
2017-06-23T14:31:34.169Z,5.03
2017-06-23T14:34:02.393Z,4.80
2017-06-23T14:36:29.837Z,4.53
2017-06-23T14:38:57.332Z,5.17
2017-06-23T14:41:24.776Z,4.30
2017-06-23T14:43:52.237Z,4.80
2017-06-23T14:46:19.689Z,5.03
2017-06-23T14:48:47.157Z,4.90
2017-06-23T14:51:14.609Z,5.00
2017-06-23T14:53:42.069Z,4.50
2017-06-23T14:56:09.530Z,4.23
2017-06-23T14:58:36.986Z,4.63
2017-06-23T15:01:04.450Z,4.33
2017-06-23T15:03:31.972Z,4.50
2017-06-23T15:05:59.432Z,4.40
2017-06-23T15:08:26.886Z,3.97
2017-06-23T15:10:54.325Z,4.20
2017-06-23T15:13:21.775Z,4.67
2017-06-23T15:15:49.225Z,4.93
2017-06-23T15:18:17.440Z,4.67
2017-06-23T15:20:44.898Z,4.30
2017-06-23T15:23:12.358Z,4.70
2017-06-23T15:25:39.810Z,4.97
2017-06-23T15:28:07.269Z,4.80
2017-06-23T15:30:34.727Z,4.27
2017-06-23T15:33:02.178Z,4.60
2017-06-23T15:35:29.620Z,4.30
2017-06-23T15:37:57.076Z,4.40
2017-06-23T15:40:24.538Z,4.73
2017-06-23T15:42:52.001Z,4.90
2017-06-23T15:45:19.570Z,5.33
2017-06-23T15:47:47.033Z,4.90
2017-06-23T15:50:14.481Z,5.27
2017-06-23T15:52:41.988Z,5.30
2017-06-23T15:55:09.449Z,5.00
2017-06-23T15:57:36.905Z,5.20
2017-06-23T16:00:04.361Z,5.40
2017-06-23T16:02:31.817Z,5.20
2017-06-23T16:04:59.264Z,5.77
2017-06-23T16:07:26.720Z,5.67
2017-06-23T16:09:54.181Z,4.97
2017-06-23T16:12:21.637Z,5.03
2017-06-23T16:14:49.093Z,5.47
2017-06-23T16:17:16.595Z,5.90
2017-06-23T16:19:44.813Z,5.77
2017-06-23T16:22:12.265Z,5.40
2017-06-23T16:24:39.727Z,5.47
2017-06-23T16:27:07.182Z,5.90
2017-06-23T16:29:34.637Z,5.30
2017-06-23T16:32:02.097Z,5.60
2017-06-23T16:34:29.547Z,5.20
2017-06-23T16:36:57.010Z,5.10
2017-06-23T16:39:24.467Z,4.83
2017-06-23T16:41:51.941Z,5.27
2017-06-23T16:44:19.403Z,4.50
2017-06-23T16:46:46.915Z,5.60
2017-06-23T16:49:15.137Z,5.03
2017-06-23T16:51:43.014Z,4.90
2017-06-23T16:54:10.468Z,4.90
2017-06-23T16:56:37.925Z,4.80
2017-06-23T16:59:05.381Z,5.00
2017-06-23T17:01:32.824Z,5.00
2017-06-23T17:04:00.276Z,5.07
2017-06-23T17:06:27.724Z,4.47
2017-06-23T17:08:55.177Z,4.67
2017-06-23T17:11:22.633Z,4.37
2017-06-23T17:13:50.081Z,4.20
2017-06-23T17:16:18.296Z,5.00
2017-06-23T17:18:45.749Z,5.03
2017-06-23T17:21:13.208Z,5.13
2017-06-23T17:23:40.662Z,4.40
2017-06-23T17:26:08.913Z,5.23
2017-06-23T17:28:36.369Z,4.93
2017-06-23T17:31:03.821Z,5.07
2017-06-23T17:33:32.053Z,5.03
2017-06-23T17:35:59.505Z,5.03
2017-06-23T17:38:26.960Z,5.43
2017-06-23T17:40:54.417Z,4.70
2017-06-23T17:43:21.950Z,4.80
2017-06-23T17:45:49.380Z,5.03
2017-06-23T17:48:17.608Z,4.97
2017-06-23T17:50:45.065Z,5.10
2017-06-23T17:53:12.523Z,5.30
2017-06-23T17:55:39.982Z,4.97
2017-06-23T17:58:07.433Z,4.90
2017-06-23T18:00:34.897Z,6.10
2017-06-23T18:03:02.340Z,5.60
2017-06-23T18:05:29.802Z,5.67
2017-06-23T18:07:57.282Z,5.47
2017-06-23T18:10:24.733Z,5.63
2017-06-23T18:12:52.193Z,6.00
2017-06-23T18:15:19.638Z,5.50
2017-06-23T18:17:47.089Z,6.00
2017-06-23T18:20:14.548Z,5.70
2017-06-23T18:22:42.005Z,6.90
2017-06-23T18:25:09.453Z,5.90
2017-06-23T18:27:36.921Z,5.60
2017-06-23T18:30:04.377Z,5.10
2017-06-23T18:32:31.834Z,5.47
2017-06-23T18:34:59.292Z,5.80
2017-06-23T18:37:26.753Z,5.30
2017-06-23T18:39:54.248Z,4.90
2017-06-23T18:42:21.693Z,5.20
2017-06-23T18:44:49.145Z,4.23
2017-06-23T18:47:16.594Z,4.90
2017-06-23T18:49:44.044Z,4.70
2017-06-23T18:52:11.501Z,4.57
2017-06-23T18:54:38.945Z,4.30
2017-06-23T18:57:06.396Z,4.07
2017-06-23T18:59:33.853Z,4.17
2017-06-23T19:02:01.313Z,4.53
2017-06-23T19:04:28.761Z,3.70
2017-06-23T19:06:56.224Z,3.40
2017-06-23T19:09:23.673Z,4.47
2017-06-23T19:11:51.902Z,7.13
2017-06-23T19:14:19.357Z,3.83
2017-06-23T19:16:46.818Z,3.60
2017-06-23T19:19:14.271Z,3.40
2017-06-23T19:21:44.657Z,4.03
2017-06-23T19:24:12.118Z,3.03
2017-06-23T19:26:39.564Z,2.83
2017-06-23T19:29:07.789Z,3.57
2017-06-23T19:31:35.249Z,3.23
2017-06-23T19:34:02.700Z,2.83
2017-06-23T19:36:30.161Z,3.00
2017-06-23T19:38:57.616Z,2.50
2017-06-23T19:41:25.081Z,2.83
2017-06-23T19:43:52.532Z,2.77
2017-06-23T19:46:19.985Z,2.60
2017-06-23T19:48:47.445Z,2.73
2017-06-23T19:51:14.900Z,3.00
2017-06-23T19:53:42.352Z,3.20
2017-06-23T19:56:09.807Z,3.27
2017-06-23T19:58:37.252Z,2.93
2017-06-23T20:01:04.709Z,3.33
2017-06-23T20:03:32.165Z,2.90
2017-06-23T20:05:59.635Z,2.63
2017-06-23T20:08:27.110Z,3.20
2017-06-23T20:10:54.562Z,3.47
2017-06-23T20:13:22.009Z,2.93
2017-06-23T20:15:49.521Z,3.47
2017-06-23T20:18:16.961Z,2.50
2017-06-23T20:20:44.481Z,2.80
2017-06-23T20:23:11.919Z,2.90
2017-06-23T20:25:40.144Z,2.90
2017-06-23T20:28:07.589Z,2.80
2017-06-23T20:30:35.059Z,3.60
2017-06-23T20:33:02.517Z,2.80
2017-06-23T20:35:29.965Z,2.70
2017-06-23T20:37:57.423Z,2.80
2017-06-23T20:40:24.874Z,2.73
2017-06-23T20:42:52.332Z,3.20
2017-06-23T20:45:19.777Z,2.87
2017-06-23T20:47:47.228Z,3.30
2017-06-23T20:50:14.685Z,11.97
2017-06-23T20:52:42.145Z,6.60
2017-06-23T20:55:09.669Z,3.17
2017-06-23T20:57:37.125Z,3.13
2017-06-23T21:00:04.676Z,3.10
2017-06-23T21:02:32.226Z,2.90
2017-06-23T21:04:59.797Z,3.00
2017-06-23T21:07:27.266Z,2.60
2017-06-23T21:09:54.719Z,3.20
2017-06-23T21:12:22.340Z,3.00
2017-06-23T21:14:49.827Z,3.03
2017-06-23T21:17:17.285Z,3.23
2017-06-23T21:19:44.888Z,2.90
2017-06-23T21:22:12.340Z,3.40
2017-06-23T21:24:40.581Z,3.27
2017-06-23T21:27:08.136Z,3.10
2017-06-23T21:29:35.672Z,3.47
2017-06-23T21:32:03.155Z,3.03
2017-06-23T21:34:30.611Z,3.27
2017-06-23T21:36:58.073Z,3.70
2017-06-23T21:39:25.633Z,2.87
2017-06-23T21:41:53.097Z,3.00
2017-06-23T21:44:20.653Z,2.93
2017-06-23T21:46:48.117Z,3.77
2017-06-23T21:49:15.673Z,4.27
2017-06-23T21:51:44.375Z,3.50
2017-06-23T21:54:11.923Z,3.50
2017-06-23T21:56:39.375Z,3.40
2017-06-23T21:59:06.832Z,3.30
2017-06-23T22:01:34.293Z,3.10
2017-06-23T22:04:01.821Z,3.50
2017-06-23T22:06:29.278Z,4.00
2017-06-23T22:08:56.727Z,3.20
2017-06-23T22:11:24.193Z,3.60
2017-06-23T22:13:51.652Z,3.57
2017-06-23T22:16:19.109Z,3.20
2017-06-23T22:18:46.569Z,3.70
2017-06-23T22:21:14.025Z,3.93
2017-06-23T22:23:41.623Z,3.90
2017-06-23T22:26:09.068Z,3.60
2017-06-23T22:28:36.529Z,4.20
2017-06-23T22:31:03.987Z,3.87
2017-06-23T22:33:31.436Z,3.80
2017-06-23T22:35:58.897Z,4.17
2017-06-23T22:38:26.348Z,3.50
2017-06-23T22:40:53.792Z,3.67
2017-06-23T22:43:21.257Z,4.47
2017-06-23T22:45:48.713Z,4.10
2017-06-23T22:48:16.173Z,3.97
2017-06-23T22:50:43.636Z,3.73
2017-06-23T22:53:11.105Z,3.60
2017-06-23T22:55:38.556Z,3.90
2017-06-23T22:58:06.004Z,4.20
2017-06-23T23:00:33.502Z,4.27
2017-06-23T23:03:00.961Z,4.30
2017-06-23T23:05:28.425Z,4.40
2017-06-23T23:07:55.887Z,4.50
2017-06-23T23:10:24.106Z,3.93
2017-06-23T23:12:51.569Z,4.27
2017-06-23T23:15:19.025Z,4.00
2017-06-23T23:17:46.583Z,4.17
2017-06-23T23:20:14.034Z,4.33
2017-06-23T23:22:41.493Z,3.93
2017-06-23T23:25:08.945Z,4.00
2017-06-23T23:27:36.418Z,4.23
2017-06-23T23:30:03.878Z,3.90
2017-06-23T23:32:31.338Z,4.37
2017-06-23T23:34:58.793Z,4.00
2017-06-23T23:37:26.264Z,4.10
2017-06-23T23:39:53.721Z,4.20
2017-06-23T23:42:21.177Z,3.90
2017-06-23T23:44:48.633Z,4.10
2017-06-23T23:47:16.089Z,4.60
2017-06-23T23:49:43.590Z,4.83
2017-06-23T23:52:11.817Z,4.30
2017-06-23T23:54:39.272Z,4.30
2017-06-23T23:57:06.728Z,4.60
2017-06-23T23:59:34.223Z,3.60
